sensor_id;sensor_type;location;lat;lon;timestamp;P1;durP1;ratioP1;P2;durP2;ratioP2
61015;SDS011;46902;52.920;6.536;2023-07-13T00:02:14;9.60;;;2.42;;
61015;SDS011;46902;52.920;6.536;2023-07-13T00:04:40;15.27;;;3.15;;
61015;SDS011;46902;52.920;6.536;2023-07-13T00:07:06;12.65;;;2.30;;
61015;SDS011;46902;52.920;6.536;2023-07-13T00:09:33;13.35;;;2.75;;
61015;SDS011;46902;52.920;6.536;2023-07-13T00:11:59;14.65;;;2.97;;
61015;SDS011;46902;52.920;6.536;2023-07-13T00:14:26;14.50;;;2.65;;
61015;SDS011;46902;52.920;6.536;2023-07-13T00:16:53;12.32;;;2.90;;
61015;SDS011;46902;52.920;6.536;2023-07-13T00:19:19;10.20;;;3.00;;
61015;SDS011;46902;52.920;6.536;2023-07-13T00:21:45;10.73;;;2.53;;
61015;SDS011;46902;52.920;6.536;2023-07-13T00:24:12;12.75;;;2.83;;
61015;SDS011;46902;52.920;6.536;2023-07-13T00:26:39;13.75;;;3.25;;
61015;SDS011;46902;52.920;6.536;2023-07-13T00:29:05;13.10;;;2.63;;
61015;SDS011;46902;52.920;6.536;2023-07-13T00:31:33;16.73;;;3.05;;
61015;SDS011;46902;52.920;6.536;2023-07-13T00:33:59;14.70;;;3.10;;
61015;SDS011;46902;52.920;6.536;2023-07-13T00:36:25;12.55;;;2.35;;
61015;SDS011;46902;52.920;6.536;2023-07-13T00:38:51;12.18;;;2.70;;
61015;SDS011;46902;52.920;6.536;2023-07-13T00:41:17;16.95;;;3.22;;
61015;SDS011;46902;52.920;6.536;2023-07-13T00:43:44;12.13;;;2.88;;
61015;SDS011;46902;52.920;6.536;2023-07-13T00:46:12;11.07;;;2.58;;
61015;SDS011;46902;52.920;6.536;2023-07-13T00:48:47;14.13;;;2.88;;
61015;SDS011;46902;52.920;6.536;2023-07-13T00:51:14;12.68;;;2.28;;
61015;SDS011;46902;52.920;6.536;2023-07-13T00:53:43;16.45;;;2.75;;
61015;SDS011;46902;52.920;6.536;2023-07-13T00:56:10;15.48;;;3.53;;
61015;SDS011;46902;52.920;6.536;2023-07-13T00:58:36;15.07;;;3.40;;
61015;SDS011;46902;52.920;6.536;2023-07-13T01:01:02;13.65;;;2.80;;
61015;SDS011;46902;52.920;6.536;2023-07-13T01:03:28;14.25;;;2.70;;
61015;SDS011;46902;52.920;6.536;2023-07-13T01:05:54;15.32;;;2.97;;
61015;SDS011;46902;52.920;6.536;2023-07-13T01:08:20;14.77;;;2.88;;
61015;SDS011;46902;52.920;6.536;2023-07-13T01:10:56;17.67;;;3.35;;
61015;SDS011;46902;52.920;6.536;2023-07-13T01:13:23;10.90;;;3.17;;
61015;SDS011;46902;52.920;6.536;2023-07-13T01:15:50;14.07;;;2.75;;
61015;SDS011;46902;52.920;6.536;2023-07-13T01:18:26;11.00;;;2.30;;
61015;SDS011;46902;52.920;6.536;2023-07-13T01:20:57;12.35;;;2.63;;
61015;SDS011;46902;52.920;6.536;2023-07-13T01:23:25;12.70;;;3.20;;
61015;SDS011;46902;52.920;6.536;2023-07-13T01:25:52;13.38;;;2.72;;
61015;SDS011;46902;52.920;6.536;2023-07-13T01:28:20;10.77;;;2.60;;
61015;SDS011;46902;52.920;6.536;2023-07-13T01:30:46;11.63;;;2.97;;
61015;SDS011;46902;52.920;6.536;2023-07-13T01:33:14;12.70;;;3.10;;
61015;SDS011;46902;52.920;6.536;2023-07-13T01:35:41;14.32;;;3.08;;
61015;SDS011;46902;52.920;6.536;2023-07-13T01:38:08;15.35;;;3.00;;
61015;SDS011;46902;52.920;6.536;2023-07-13T01:40:35;13.18;;;2.83;;
61015;SDS011;46902;52.920;6.536;2023-07-13T01:43:01;10.05;;;2.45;;
61015;SDS011;46902;52.920;6.536;2023-07-13T01:45:27;13.70;;;2.50;;
61015;SDS011;46902;52.920;6.536;2023-07-13T01:47:52;12.45;;;2.53;;
61015;SDS011;46902;52.920;6.536;2023-07-13T01:50:18;12.95;;;2.92;;
61015;SDS011;46902;52.920;6.536;2023-07-13T01:52:43;11.38;;;2.33;;
61015;SDS011;46902;52.920;6.536;2023-07-13T01:55:09;15.07;;;2.85;;
61015;SDS011;46902;52.920;6.536;2023-07-13T01:57:35;11.98;;;2.95;;
61015;SDS011;46902;52.920;6.536;2023-07-13T02:00:04;9.23;;;2.33;;
61015;SDS011;46902;52.920;6.536;2023-07-13T02:02:31;11.77;;;2.60;;
61015;SDS011;46902;52.920;6.536;2023-07-13T02:04:57;10.52;;;2.75;;
61015;SDS011;46902;52.920;6.536;2023-07-13T02:07:22;13.48;;;3.15;;
61015;SDS011;46902;52.920;6.536;2023-07-13T02:09:48;11.93;;;2.80;;
61015;SDS011;46902;52.920;6.536;2023-07-13T02:12:13;16.48;;;2.72;;
61015;SDS011;46902;52.920;6.536;2023-07-13T02:14:39;12.40;;;3.05;;
61015;SDS011;46902;52.920;6.536;2023-07-13T02:17:05;14.00;;;2.60;;
61015;SDS011;46902;52.920;6.536;2023-07-13T02:19:31;10.65;;;2.60;;
61015;SDS011;46902;52.920;6.536;2023-07-13T02:21:57;10.98;;;2.53;;
61015;SDS011;46902;52.920;6.536;2023-07-13T02:24:22;11.63;;;3.20;;
61015;SDS011;46902;52.920;6.536;2023-07-13T02:26:48;11.23;;;2.83;;
61015;SDS011;46902;52.920;6.536;2023-07-13T02:29:13;14.07;;;3.25;;
61015;SDS011;46902;52.920;6.536;2023-07-13T02:31:39;12.43;;;2.85;;
61015;SDS011;46902;52.920;6.536;2023-07-13T02:34:05;12.82;;;3.00;;
61015;SDS011;46902;52.920;6.536;2023-07-13T02:36:31;11.25;;;2.90;;
61015;SDS011;46902;52.920;6.536;2023-07-13T02:39:01;11.98;;;2.65;;
61015;SDS011;46902;52.920;6.536;2023-07-13T02:41:28;15.73;;;2.90;;
61015;SDS011;46902;52.920;6.536;2023-07-13T02:43:54;15.63;;;2.85;;
61015;SDS011;46902;52.920;6.536;2023-07-13T02:46:27;12.30;;;3.20;;
61015;SDS011;46902;52.920;6.536;2023-07-13T02:48:53;12.05;;;3.20;;
61015;SDS011;46902;52.920;6.536;2023-07-13T02:51:19;10.85;;;3.00;;
61015;SDS011;46902;52.920;6.536;2023-07-13T02:53:45;14.18;;;3.75;;
61015;SDS011;46902;52.920;6.536;2023-07-13T02:56:10;12.60;;;2.92;;
61015;SDS011;46902;52.920;6.536;2023-07-13T02:58:36;13.10;;;2.95;;
61015;SDS011;46902;52.920;6.536;2023-07-13T03:01:07;11.45;;;3.33;;
61015;SDS011;46902;52.920;6.536;2023-07-13T03:03:34;12.35;;;3.10;;
61015;SDS011;46902;52.920;6.536;2023-07-13T03:06:01;14.40;;;3.05;;
61015;SDS011;46902;52.920;6.536;2023-07-13T03:08:28;12.50;;;3.00;;
61015;SDS011;46902;52.920;6.536;2023-07-13T03:11:00;15.85;;;3.22;;
61015;SDS011;46902;52.920;6.536;2023-07-13T03:13:28;16.73;;;3.38;;
61015;SDS011;46902;52.920;6.536;2023-07-13T03:15:53;13.48;;;3.15;;
61015;SDS011;46902;52.920;6.536;2023-07-13T03:18:19;12.90;;;2.75;;
61015;SDS011;46902;52.920;6.536;2023-07-13T03:20:45;11.82;;;3.03;;
61015;SDS011;46902;52.920;6.536;2023-07-13T03:23:10;11.27;;;3.15;;
61015;SDS011;46902;52.920;6.536;2023-07-13T03:25:36;16.00;;;2.78;;
61015;SDS011;46902;52.920;6.536;2023-07-13T03:28:02;9.23;;;3.10;;
61015;SDS011;46902;52.920;6.536;2023-07-13T03:30:27;14.48;;;2.83;;
61015;SDS011;46902;52.920;6.536;2023-07-13T03:32:53;12.13;;;3.00;;
61015;SDS011;46902;52.920;6.536;2023-07-13T03:35:18;12.18;;;2.92;;
61015;SDS011;46902;52.920;6.536;2023-07-13T03:37:44;15.07;;;3.45;;
61015;SDS011;46902;52.920;6.536;2023-07-13T03:40:10;17.40;;;3.22;;
61015;SDS011;46902;52.920;6.536;2023-07-13T03:42:38;12.88;;;2.75;;
61015;SDS011;46902;52.920;6.536;2023-07-13T03:45:03;15.18;;;3.53;;
61015;SDS011;46902;52.920;6.536;2023-07-13T03:47:29;15.38;;;3.05;;
61015;SDS011;46902;52.920;6.536;2023-07-13T03:49:55;15.18;;;3.33;;
61015;SDS011;46902;52.920;6.536;2023-07-13T03:52:20;16.50;;;3.05;;
61015;SDS011;46902;52.920;6.536;2023-07-13T03:54:46;20.50;;;3.85;;
61015;SDS011;46902;52.920;6.536;2023-07-13T03:57:12;19.02;;;3.30;;
61015;SDS011;46902;52.920;6.536;2023-07-13T03:59:37;14.65;;;2.85;;
61015;SDS011;46902;52.920;6.536;2023-07-13T04:02:03;11.07;;;2.90;;
61015;SDS011;46902;52.920;6.536;2023-07-13T04:04:29;11.75;;;3.28;;
61015;SDS011;46902;52.920;6.536;2023-07-13T04:06:55;14.68;;;3.17;;
61015;SDS011;46902;52.920;6.536;2023-07-13T04:09:23;7.88;;;2.80;;
61015;SDS011;46902;52.920;6.536;2023-07-13T04:11:49;18.10;;;3.72;;
61015;SDS011;46902;52.920;6.536;2023-07-13T04:14:15;17.50;;;3.38;;
61015;SDS011;46902;52.920;6.536;2023-07-13T04:16:41;17.23;;;3.40;;
61015;SDS011;46902;52.920;6.536;2023-07-13T04:19:07;14.90;;;3.42;;
61015;SDS011;46902;52.920;6.536;2023-07-13T04:21:35;15.10;;;3.97;;
61015;SDS011;46902;52.920;6.536;2023-07-13T04:24:01;11.55;;;3.25;;
61015;SDS011;46902;52.920;6.536;2023-07-13T04:26:28;16.20;;;3.92;;
61015;SDS011;46902;52.920;6.536;2023-07-13T04:28:54;11.13;;;3.10;;
61015;SDS011;46902;52.920;6.536;2023-07-13T04:31:20;13.43;;;3.60;;
61015;SDS011;46902;52.920;6.536;2023-07-13T04:33:46;14.75;;;3.25;;
61015;SDS011;46902;52.920;6.536;2023-07-13T04:36:13;13.35;;;3.20;;
61015;SDS011;46902;52.920;6.536;2023-07-13T04:38:40;13.13;;;4.00;;
61015;SDS011;46902;52.920;6.536;2023-07-13T04:41:06;9.70;;;3.13;;
61015;SDS011;46902;52.920;6.536;2023-07-13T04:43:33;15.65;;;3.50;;
61015;SDS011;46902;52.920;6.536;2023-07-13T04:46:06;10.50;;;3.65;;
61015;SDS011;46902;52.920;6.536;2023-07-13T04:48:36;10.20;;;3.10;;
61015;SDS011;46902;52.920;6.536;2023-07-13T04:51:01;17.00;;;3.95;;
61015;SDS011;46902;52.920;6.536;2023-07-13T04:53:28;16.45;;;3.90;;
61015;SDS011;46902;52.920;6.536;2023-07-13T04:55:54;11.65;;;2.97;;
61015;SDS011;46902;52.920;6.536;2023-07-13T04:58:20;13.63;;;3.45;;
61015;SDS011;46902;52.920;6.536;2023-07-13T05:00:47;16.33;;;3.58;;
61015;SDS011;46902;52.920;6.536;2023-07-13T05:03:13;15.85;;;3.40;;
61015;SDS011;46902;52.920;6.536;2023-07-13T05:05:39;13.85;;;3.92;;
61015;SDS011;46902;52.920;6.536;2023-07-13T05:08:04;12.98;;;3.13;;
61015;SDS011;46902;52.920;6.536;2023-07-13T05:10:30;12.95;;;3.63;;
61015;SDS011;46902;52.920;6.536;2023-07-13T05:12:55;13.52;;;3.30;;
61015;SDS011;46902;52.920;6.536;2023-07-13T05:15:21;11.27;;;3.40;;
61015;SDS011;46902;52.920;6.536;2023-07-13T05:17:48;11.18;;;3.20;;
61015;SDS011;46902;52.920;6.536;2023-07-13T05:20:14;16.08;;;3.80;;
61015;SDS011;46902;52.920;6.536;2023-07-13T05:22:41;17.67;;;4.32;;
61015;SDS011;46902;52.920;6.536;2023-07-13T05:25:07;16.33;;;3.40;;
61015;SDS011;46902;52.920;6.536;2023-07-13T05:27:33;12.60;;;4.00;;
61015;SDS011;46902;52.920;6.536;2023-07-13T05:30:00;11.20;;;3.63;;
61015;SDS011;46902;52.920;6.536;2023-07-13T05:32:26;14.18;;;3.83;;
61015;SDS011;46902;52.920;6.536;2023-07-13T05:34:52;16.95;;;3.47;;
61015;SDS011;46902;52.920;6.536;2023-07-13T05:37:18;13.40;;;3.35;;
61015;SDS011;46902;52.920;6.536;2023-07-13T05:39:43;11.75;;;3.47;;
61015;SDS011;46902;52.920;6.536;2023-07-13T05:42:09;12.13;;;3.22;;
61015;SDS011;46902;52.920;6.536;2023-07-13T05:44:35;10.52;;;3.03;;
61015;SDS011;46902;52.920;6.536;2023-07-13T05:47:00;13.07;;;3.60;;
61015;SDS011;46902;52.920;6.536;2023-07-13T05:49:26;12.82;;;3.22;;
61015;SDS011;46902;52.920;6.536;2023-07-13T05:51:52;14.18;;;3.42;;
61015;SDS011;46902;52.920;6.536;2023-07-13T05:54:17;14.05;;;3.53;;
61015;SDS011;46902;52.920;6.536;2023-07-13T05:56:43;19.15;;;3.97;;
61015;SDS011;46902;52.920;6.536;2023-07-13T05:59:09;15.77;;;3.88;;
61015;SDS011;46902;52.920;6.536;2023-07-13T06:01:34;15.65;;;4.30;;
61015;SDS011;46902;52.920;6.536;2023-07-13T06:04:00;13.05;;;3.63;;
61015;SDS011;46902;52.920;6.536;2023-07-13T06:06:26;12.57;;;4.32;;
61015;SDS011;46902;52.920;6.536;2023-07-13T06:08:51;15.50;;;3.75;;
61015;SDS011;46902;52.920;6.536;2023-07-13T06:11:18;12.27;;;3.63;;
61015;SDS011;46902;52.920;6.536;2023-07-13T06:13:46;12.80;;;3.22;;
61015;SDS011;46902;52.920;6.536;2023-07-13T06:16:12;12.75;;;4.13;;
61015;SDS011;46902;52.920;6.536;2023-07-13T06:18:38;10.25;;;3.13;;
61015;SDS011;46902;52.920;6.536;2023-07-13T06:21:05;12.27;;;3.50;;
61015;SDS011;46902;52.920;6.536;2023-07-13T06:23:32;14.43;;;3.70;;
61015;SDS011;46902;52.920;6.536;2023-07-13T06:25:58;18.65;;;4.30;;
61015;SDS011;46902;52.920;6.536;2023-07-13T06:28:24;12.48;;;3.10;;
61015;SDS011;46902;52.920;6.536;2023-07-13T06:30:49;15.10;;;3.22;;
61015;SDS011;46902;52.920;6.536;2023-07-13T06:33:15;12.25;;;3.10;;
61015;SDS011;46902;52.920;6.536;2023-07-13T06:35:41;16.15;;;3.83;;
61015;SDS011;46902;52.920;6.536;2023-07-13T06:38:07;14.73;;;3.42;;
61015;SDS011;46902;52.920;6.536;2023-07-13T06:40:33;12.70;;;3.22;;
61015;SDS011;46902;52.920;6.536;2023-07-13T06:42:58;11.45;;;3.03;;
61015;SDS011;46902;52.920;6.536;2023-07-13T06:45:24;12.23;;;3.25;;
61015;SDS011;46902;52.920;6.536;2023-07-13T06:47:49;10.35;;;3.35;;
61015;SDS011;46902;52.920;6.536;2023-07-13T06:50:15;9.48;;;2.95;;
61015;SDS011;46902;52.920;6.536;2023-07-13T06:52:41;7.47;;;2.75;;
61015;SDS011;46902;52.920;6.536;2023-07-13T06:55:06;12.77;;;3.00;;
61015;SDS011;46902;52.920;6.536;2023-07-13T06:57:33;11.65;;;3.35;;
61015;SDS011;46902;52.920;6.536;2023-07-13T06:59:59;13.18;;;3.55;;
61015;SDS011;46902;52.920;6.536;2023-07-13T07:02:24;14.23;;;3.10;;
61015;SDS011;46902;52.920;6.536;2023-07-13T07:04:50;10.25;;;3.33;;
61015;SDS011;46902;52.920;6.536;2023-07-13T07:07:16;12.43;;;3.28;;
61015;SDS011;46902;52.920;6.536;2023-07-13T07:09:41;12.02;;;3.38;;
61015;SDS011;46902;52.920;6.536;2023-07-13T07:12:07;9.32;;;2.90;;
61015;SDS011;46902;52.920;6.536;2023-07-13T07:14:33;10.77;;;3.13;;
61015;SDS011;46902;52.920;6.536;2023-07-13T07:16:59;13.30;;;2.92;;
61015;SDS011;46902;52.920;6.536;2023-07-13T07:19:25;9.90;;;3.13;;
61015;SDS011;46902;52.920;6.536;2023-07-13T07:21:52;9.95;;;2.63;;
61015;SDS011;46902;52.920;6.536;2023-07-13T07:24:17;13.27;;;2.72;;
61015;SDS011;46902;52.920;6.536;2023-07-13T07:26:43;10.70;;;2.45;;
61015;SDS011;46902;52.920;6.536;2023-07-13T07:29:09;16.48;;;3.03;;
61015;SDS011;46902;52.920;6.536;2023-07-13T07:31:34;10.93;;;3.05;;
61015;SDS011;46902;52.920;6.536;2023-07-13T07:34:02;11.95;;;2.92;;
61015;SDS011;46902;52.920;6.536;2023-07-13T07:36:28;10.32;;;3.17;;
61015;SDS011;46902;52.920;6.536;2023-07-13T07:38:53;12.05;;;3.33;;
61015;SDS011;46902;52.920;6.536;2023-07-13T07:41:19;13.73;;;3.88;;
61015;SDS011;46902;52.920;6.536;2023-07-13T07:43:45;13.45;;;3.67;;
61015;SDS011;46902;52.920;6.536;2023-07-13T07:46:10;12.32;;;3.78;;
61015;SDS011;46902;52.920;6.536;2023-07-13T07:48:36;10.20;;;3.20;;
61015;SDS011;46902;52.920;6.536;2023-07-13T07:51:01;14.85;;;4.07;;
61015;SDS011;46902;52.920;6.536;2023-07-13T07:53:27;12.32;;;3.90;;
61015;SDS011;46902;52.920;6.536;2023-07-13T07:55:53;11.07;;;3.88;;
61015;SDS011;46902;52.920;6.536;2023-07-13T07:58:18;9.43;;;3.25;;
61015;SDS011;46902;52.920;6.536;2023-07-13T08:00:44;10.13;;;3.58;;
61015;SDS011;46902;52.920;6.536;2023-07-13T08:03:10;11.32;;;4.22;;
61015;SDS011;46902;52.920;6.536;2023-07-13T08:05:36;11.93;;;3.63;;
61015;SDS011;46902;52.920;6.536;2023-07-13T08:08:02;15.02;;;4.05;;
61015;SDS011;46902;52.920;6.536;2023-07-13T08:10:28;12.30;;;3.80;;
61015;SDS011;46902;52.920;6.536;2023-07-13T08:12:53;14.18;;;3.53;;
61015;SDS011;46902;52.920;6.536;2023-07-13T08:15:19;12.32;;;4.47;;
61015;SDS011;46902;52.920;6.536;2023-07-13T08:17:46;11.93;;;3.88;;
61015;SDS011;46902;52.920;6.536;2023-07-13T08:20:13;14.15;;;4.05;;
61015;SDS011;46902;52.920;6.536;2023-07-13T08:22:39;12.00;;;3.88;;
61015;SDS011;46902;52.920;6.536;2023-07-13T08:25:04;12.80;;;3.88;;
61015;SDS011;46902;52.920;6.536;2023-07-13T08:27:30;12.40;;;4.55;;
61015;SDS011;46902;52.920;6.536;2023-07-13T08:29:56;11.88;;;3.95;;
61015;SDS011;46902;52.920;6.536;2023-07-13T08:32:22;19.65;;;5.68;;
61015;SDS011;46902;52.920;6.536;2023-07-13T08:34:48;13.77;;;4.50;;
61015;SDS011;46902;52.920;6.536;2023-07-13T08:37:14;12.88;;;3.42;;
61015;SDS011;46902;52.920;6.536;2023-07-13T08:39:40;8.55;;;2.35;;
61015;SDS011;46902;52.920;6.536;2023-07-13T08:48:20;6.93;;;2.58;;
61015;SDS011;46902;52.920;6.536;2023-07-13T08:50:48;12.35;;;3.33;;
61015;SDS011;46902;52.920;6.536;2023-07-13T08:53:20;7.22;;;2.33;;
61015;SDS011;46902;52.920;6.536;2023-07-13T08:55:48;8.93;;;2.25;;
61015;SDS011;46902;52.920;6.536;2023-07-13T08:58:18;7.43;;;2.22;;
61015;SDS011;46902;52.920;6.536;2023-07-13T09:00:47;11.43;;;2.70;;
61015;SDS011;46902;52.920;6.536;2023-07-13T09:03:22;12.50;;;3.78;;
61015;SDS011;46902;52.920;6.536;2023-07-13T09:05:52;10.38;;;3.33;;
61015;SDS011;46902;52.920;6.536;2023-07-13T09:11:03;10.30;;;3.97;;
61015;SDS011;46902;52.920;6.536;2023-07-13T09:16:25;11.77;;;4.55;;
61015;SDS011;46902;52.920;6.536;2023-07-13T09:18:53;11.70;;;4.63;;
61015;SDS011;46902;52.920;6.536;2023-07-13T09:21:25;15.40;;;4.35;;
61015;SDS011;46902;52.920;6.536;2023-07-13T09:23:59;12.75;;;4.43;;
61015;SDS011;46902;52.920;6.536;2023-07-13T09:26:29;11.43;;;4.10;;
61015;SDS011;46902;52.920;6.536;2023-07-13T09:28:58;12.38;;;4.15;;
61015;SDS011;46902;52.920;6.536;2023-07-13T09:31:40;7.07;;;2.55;;
61015;SDS011;46902;52.920;6.536;2023-07-13T09:34:10;6.57;;;2.25;;
61015;SDS011;46902;52.920;6.536;2023-07-13T09:36:36;5.30;;;2.28;;
61015;SDS011;46902;52.920;6.536;2023-07-13T09:39:04;6.28;;;1.92;;
61015;SDS011;46902;52.920;6.536;2023-07-13T09:46:58;3.20;;;1.60;;
61015;SDS011;46902;52.920;6.536;2023-07-13T09:49:34;3.50;;;1.77;;
61015;SDS011;46902;52.920;6.536;2023-07-13T09:52:02;5.10;;;2.00;;
61015;SDS011;46902;52.920;6.536;2023-07-13T09:54:33;3.25;;;1.73;;
61015;SDS011;46902;52.920;6.536;2023-07-13T09:56:59;3.33;;;1.88;;
61015;SDS011;46902;52.920;6.536;2023-07-13T09:59:29;4.45;;;1.70;;
61015;SDS011;46902;52.920;6.536;2023-07-13T10:01:56;4.53;;;2.00;;
61015;SDS011;46902;52.920;6.536;2023-07-13T10:04:26;2.20;;;1.80;;
61015;SDS011;46902;52.920;6.536;2023-07-13T10:07:08;3.28;;;1.52;;
61015;SDS011;46902;52.920;6.536;2023-07-13T10:09:38;3.78;;;1.60;;
61015;SDS011;46902;52.920;6.536;2023-07-13T10:12:04;2.65;;;1.10;;
61015;SDS011;46902;52.920;6.536;2023-07-13T10:14:38;4.60;;;1.20;;
61015;SDS011;46902;52.920;6.536;2023-07-13T10:17:08;3.92;;;1.27;;
61015;SDS011;46902;52.920;6.536;2023-07-13T10:19:37;2.67;;;1.70;;
61015;SDS011;46902;52.920;6.536;2023-07-13T10:22:26;4.93;;;1.77;;
61015;SDS011;46902;52.920;6.536;2023-07-13T10:24:57;3.58;;;1.80;;
61015;SDS011;46902;52.920;6.536;2023-07-13T10:27:25;6.03;;;2.10;;
61015;SDS011;46902;52.920;6.536;2023-07-13T10:30:13;5.82;;;2.30;;
61015;SDS011;46902;52.920;6.536;2023-07-13T10:32:45;5.15;;;2.20;;
61015;SDS011;46902;52.920;6.536;2023-07-13T10:35:13;5.75;;;2.20;;
61015;SDS011;46902;52.920;6.536;2023-07-13T10:37:51;4.85;;;2.20;;
61015;SDS011;46902;52.920;6.536;2023-07-13T10:40:32;5.63;;;2.30;;
61015;SDS011;46902;52.920;6.536;2023-07-13T10:43:04;4.35;;;2.22;;
61015;SDS011;46902;52.920;6.536;2023-07-13T10:45:35;5.10;;;2.33;;
61015;SDS011;46902;52.920;6.536;2023-07-13T10:48:02;6.63;;;2.15;;
61015;SDS011;46902;52.920;6.536;2023-07-13T10:50:29;4.53;;;2.10;;
61015;SDS011;46902;52.920;6.536;2023-07-13T10:53:17;5.97;;;2.17;;
61015;SDS011;46902;52.920;6.536;2023-07-13T11:03:28;7.20;;;1.63;;
61015;SDS011;46902;52.920;6.536;2023-07-13T11:08:36;5.47;;;1.40;;
61015;SDS011;46902;52.920;6.536;2023-07-13T11:11:45;3.75;;;1.27;;
61015;SDS011;46902;52.920;6.536;2023-07-13T11:14:25;6.47;;;1.58;;
61015;SDS011;46902;52.920;6.536;2023-07-13T11:25:31;8.00;;;1.98;;
61015;SDS011;46902;52.920;6.536;2023-07-13T11:30:39;4.68;;;1.27;;
61015;SDS011;46902;52.920;6.536;2023-07-13T11:35:50;6.15;;;1.55;;
61015;SDS011;46902;52.920;6.536;2023-07-13T11:38:41;5.35;;;1.23;;
61015;SDS011;46902;52.920;6.536;2023-07-13T11:41:18;5.05;;;1.30;;
61015;SDS011;46902;52.920;6.536;2023-07-13T11:43:50;5.55;;;1.42;;
61015;SDS011;46902;52.920;6.536;2023-07-13T11:46:21;5.32;;;1.50;;
61015;SDS011;46902;52.920;6.536;2023-07-13T11:48:49;6.90;;;1.58;;
61015;SDS011;46902;52.920;6.536;2023-07-13T11:51:21;6.38;;;1.50;;
61015;SDS011;46902;52.920;6.536;2023-07-13T11:53:53;14.85;;;2.00;;
61015;SDS011;46902;52.920;6.536;2023-07-13T11:56:22;6.20;;;1.50;;
61015;SDS011;46902;52.920;6.536;2023-07-13T11:58:50;12.90;;;1.80;;
61015;SDS011;46902;52.920;6.536;2023-07-13T12:01:22;5.95;;;1.77;;
61015;SDS011;46902;52.920;6.536;2023-07-13T12:03:50;5.97;;;1.40;;
61015;SDS011;46902;52.920;6.536;2023-07-13T12:06:23;4.97;;;1.50;;
61015;SDS011;46902;52.920;6.536;2023-07-13T12:08:58;5.10;;;1.10;;
61015;SDS011;46902;52.920;6.536;2023-07-13T12:11:25;7.55;;;1.35;;
61015;SDS011;46902;52.920;6.536;2023-07-13T12:13:51;5.75;;;1.20;;
61015;SDS011;46902;52.920;6.536;2023-07-13T12:16:28;6.72;;;1.50;;
61015;SDS011;46902;52.920;6.536;2023-07-13T12:18:58;3.55;;;0.98;;
61015;SDS011;46902;52.920;6.536;2023-07-13T12:21:32;4.93;;;1.25;;
61015;SDS011;46902;52.920;6.536;2023-07-13T12:23:59;5.90;;;1.52;;
61015;SDS011;46902;52.920;6.536;2023-07-13T12:26:29;4.78;;;1.20;;
61015;SDS011;46902;52.920;6.536;2023-07-13T12:28:56;6.82;;;1.63;;
61015;SDS011;46902;52.920;6.536;2023-07-13T12:31:43;7.55;;;1.20;;
61015;SDS011;46902;52.920;6.536;2023-07-13T12:34:12;5.43;;;1.30;;
61015;SDS011;46902;52.920;6.536;2023-07-13T12:36:49;4.45;;;1.00;;
61015;SDS011;46902;52.920;6.536;2023-07-13T12:39:23;4.20;;;1.10;;
61015;SDS011;46902;52.920;6.536;2023-07-13T12:41:49;5.82;;;1.30;;
61015;SDS011;46902;52.920;6.536;2023-07-13T12:44:27;4.82;;;1.30;;
61015;SDS011;46902;52.920;6.536;2023-07-13T12:47:02;7.45;;;1.20;;
61015;SDS011;46902;52.920;6.536;2023-07-13T12:49:31;4.10;;;1.10;;
61015;SDS011;46902;52.920;6.536;2023-07-13T12:52:00;4.85;;;1.10;;
61015;SDS011;46902;52.920;6.536;2023-07-13T12:54:29;5.43;;;1.10;;
61015;SDS011;46902;52.920;6.536;2023-07-13T12:56:55;5.65;;;1.48;;
61015;SDS011;46902;52.920;6.536;2023-07-13T12:59:23;4.20;;;1.20;;
61015;SDS011;46902;52.920;6.536;2023-07-13T13:01:54;5.20;;;1.00;;
61015;SDS011;46902;52.920;6.536;2023-07-13T13:04:20;6.47;;;1.33;;
61015;SDS011;46902;52.920;6.536;2023-07-13T13:06:46;3.17;;;0.90;;
61015;SDS011;46902;52.920;6.536;2023-07-13T13:09:13;2.85;;;0.75;;
61015;SDS011;46902;52.920;6.536;2023-07-13T13:11:41;3.80;;;1.10;;
61015;SDS011;46902;52.920;6.536;2023-07-13T13:14:07;4.50;;;1.35;;
61015;SDS011;46902;52.920;6.536;2023-07-13T13:16:54;4.95;;;1.13;;
61015;SDS011;46902;52.920;6.536;2023-07-13T13:19:21;3.42;;;1.25;;
61015;SDS011;46902;52.920;6.536;2023-07-13T13:21:50;4.30;;;1.20;;
61015;SDS011;46902;52.920;6.536;2023-07-13T13:24:19;6.05;;;1.35;;
61015;SDS011;46902;52.920;6.536;2023-07-13T13:26:46;5.53;;;1.42;;
61015;SDS011;46902;52.920;6.536;2023-07-13T13:29:17;3.67;;;0.90;;
61015;SDS011;46902;52.920;6.536;2023-07-13T13:31:46;6.47;;;1.10;;
61015;SDS011;46902;52.920;6.536;2023-07-13T13:34:13;6.07;;;1.42;;
61015;SDS011;46902;52.920;6.536;2023-07-13T13:36:41;6.03;;;1.02;;
61015;SDS011;46902;52.920;6.536;2023-07-13T13:39:21;5.50;;;1.08;;
61015;SDS011;46902;52.920;6.536;2023-07-13T13:41:47;4.60;;;0.95;;
61015;SDS011;46902;52.920;6.536;2023-07-13T13:44:15;6.95;;;1.50;;
61015;SDS011;46902;52.920;6.536;2023-07-13T13:46:42;3.90;;;0.90;;
61015;SDS011;46902;52.920;6.536;2023-07-13T13:49:18;3.10;;;0.90;;
61015;SDS011;46902;52.920;6.536;2023-07-13T13:51:49;3.65;;;1.05;;
61015;SDS011;46902;52.920;6.536;2023-07-13T13:54:15;4.30;;;0.95;;
61015;SDS011;46902;52.920;6.536;2023-07-13T13:56:43;5.57;;;1.02;;
61015;SDS011;46902;52.920;6.536;2023-07-13T13:59:12;4.93;;;1.13;;
61015;SDS011;46902;52.920;6.536;2023-07-13T14:01:39;3.63;;;0.82;;
61015;SDS011;46902;52.920;6.536;2023-07-13T14:04:05;3.22;;;0.90;;
61015;SDS011;46902;52.920;6.536;2023-07-13T14:06:32;3.13;;;0.80;;
61015;SDS011;46902;52.920;6.536;2023-07-13T14:08:59;3.92;;;0.90;;
61015;SDS011;46902;52.920;6.536;2023-07-13T14:11:25;4.80;;;1.13;;
61015;SDS011;46902;52.920;6.536;2023-07-13T14:13:52;3.45;;;0.98;;
61015;SDS011;46902;52.920;6.536;2023-07-13T14:16:24;6.80;;;1.30;;
61015;SDS011;46902;52.920;6.536;2023-07-13T14:18:53;6.15;;;1.35;;
61015;SDS011;46902;52.920;6.536;2023-07-13T14:21:21;5.78;;;1.25;;
61015;SDS011;46902;52.920;6.536;2023-07-13T14:23:47;3.03;;;1.05;;
61015;SDS011;46902;52.920;6.536;2023-07-13T14:26:18;6.93;;;1.55;;
61015;SDS011;46902;52.920;6.536;2023-07-13T14:28:45;4.72;;;1.30;;
61015;SDS011;46902;52.920;6.536;2023-07-13T14:31:13;7.63;;;1.33;;
61015;SDS011;46902;52.920;6.536;2023-07-13T14:33:39;4.32;;;1.05;;
61015;SDS011;46902;52.920;6.536;2023-07-13T14:36:13;8.30;;;1.27;;
61015;SDS011;46902;52.920;6.536;2023-07-13T14:38:50;6.30;;;1.30;;
61015;SDS011;46902;52.920;6.536;2023-07-13T14:41:16;5.20;;;1.40;;
61015;SDS011;46902;52.920;6.536;2023-07-13T14:43:41;4.72;;;1.23;;
61015;SDS011;46902;52.920;6.536;2023-07-13T14:46:08;5.85;;;1.88;;
61015;SDS011;46902;52.920;6.536;2023-07-13T14:48:52;6.65;;;1.35;;
61015;SDS011;46902;52.920;6.536;2023-07-13T14:51:24;5.72;;;1.00;;
61015;SDS011;46902;52.920;6.536;2023-07-13T14:53:50;4.80;;;1.40;;
61015;SDS011;46902;52.920;6.536;2023-07-13T14:56:15;6.57;;;1.27;;
61015;SDS011;46902;52.920;6.536;2023-07-13T14:58:42;6.15;;;1.05;;
61015;SDS011;46902;52.920;6.536;2023-07-13T15:01:14;7.13;;;1.23;;
61015;SDS011;46902;52.920;6.536;2023-07-13T15:03:43;3.03;;;0.95;;
61015;SDS011;46902;52.920;6.536;2023-07-13T15:06:11;4.55;;;1.17;;
61015;SDS011;46902;52.920;6.536;2023-07-13T15:08:38;4.22;;;1.20;;
61015;SDS011;46902;52.920;6.536;2023-07-13T15:11:06;4.40;;;1.13;;
61015;SDS011;46902;52.920;6.536;2023-07-13T15:13:32;7.07;;;1.40;;
61015;SDS011;46902;52.920;6.536;2023-07-13T15:15:59;7.93;;;1.58;;
61015;SDS011;46902;52.920;6.536;2023-07-13T15:18:25;4.40;;;1.40;;
61015;SDS011;46902;52.920;6.536;2023-07-13T15:20:52;5.70;;;1.63;;
61015;SDS011;46902;52.920;6.536;2023-07-13T15:23:21;4.05;;;1.20;;
61015;SDS011;46902;52.920;6.536;2023-07-13T15:25:47;5.45;;;1.58;;
61015;SDS011;46902;52.920;6.536;2023-07-13T15:28:13;6.47;;;1.42;;